sensor_id;sensor_type;location;lat;lon;timestamp;temperature;humidity
49731;DHT22;35622;52.008;5.426;2023-07-29T00:01:35;20.80;94.40
49731;DHT22;35622;52.008;5.426;2023-07-29T00:04:01;20.70;94.70
49731;DHT22;35622;52.008;5.426;2023-07-29T00:06:27;20.70;94.30
49731;DHT22;35622;52.008;5.426;2023-07-29T00:08:52;20.60;94.50
49731;DHT22;35622;52.008;5.426;2023-07-29T00:11:18;20.60;94.50
49731;DHT22;35622;52.008;5.426;2023-07-29T00:13:43;20.50;94.50
49731;DHT22;35622;52.008;5.426;2023-07-29T00:16:09;20.60;94.30
49731;DHT22;35622;52.008;5.426;2023-07-29T00:18:35;20.50;94.50
49731;DHT22;35622;52.008;5.426;2023-07-29T00:21:01;20.40;94.50
49731;DHT22;35622;52.008;5.426;2023-07-29T00:23:27;20.50;94.70
49731;DHT22;35622;52.008;5.426;2023-07-29T00:25:53;20.50;94.80
49731;DHT22;35622;52.008;5.426;2023-07-29T00:28:18;20.50;94.90
49731;DHT22;35622;52.008;5.426;2023-07-29T00:30:44;20.50;95.00
49731;DHT22;35622;52.008;5.426;2023-07-29T00:33:09;20.50;94.90
49731;DHT22;35622;52.008;5.426;2023-07-29T00:35:35;20.50;94.90
49731;DHT22;35622;52.008;5.426;2023-07-29T00:38:00;20.50;94.90
49731;DHT22;35622;52.008;5.426;2023-07-29T00:40:28;20.50;95.00
49731;DHT22;35622;52.008;5.426;2023-07-29T00:42:54;20.50;95.10
49731;DHT22;35622;52.008;5.426;2023-07-29T00:45:20;20.50;95.20
49731;DHT22;35622;52.008;5.426;2023-07-29T00:47:46;20.50;95.20
49731;DHT22;35622;52.008;5.426;2023-07-29T00:50:13;20.50;95.20
49731;DHT22;35622;52.008;5.426;2023-07-29T00:52:38;20.50;95.30
49731;DHT22;35622;52.008;5.426;2023-07-29T00:55:05;20.60;95.40
49731;DHT22;35622;52.008;5.426;2023-07-29T00:57:32;20.60;95.40
49731;DHT22;35622;52.008;5.426;2023-07-29T00:59:59;20.50;95.40
49731;DHT22;35622;52.008;5.426;2023-07-29T01:02:24;20.50;95.70
49731;DHT22;35622;52.008;5.426;2023-07-29T01:04:53;20.50;95.20
49731;DHT22;35622;52.008;5.426;2023-07-29T01:07:44;20.40;95.00
49731;DHT22;35622;52.008;5.426;2023-07-29T01:13:10;20.40;94.80
49731;DHT22;35622;52.008;5.426;2023-07-29T01:16:21;20.40;94.70
49731;DHT22;35622;52.008;5.426;2023-07-29T01:18:32;20.40;94.80
49731;DHT22;35622;52.008;5.426;2023-07-29T01:21:04;20.30;94.80
49731;DHT22;35622;52.008;5.426;2023-07-29T01:23:31;20.40;94.80
49731;DHT22;35622;52.008;5.426;2023-07-29T01:25:56;20.40;95.00
49731;DHT22;35622;52.008;5.426;2023-07-29T01:28:22;20.40;95.30
49731;DHT22;35622;52.008;5.426;2023-07-29T01:30:50;20.30;95.40
49731;DHT22;35622;52.008;5.426;2023-07-29T01:33:26;20.30;95.40
49731;DHT22;35622;52.008;5.426;2023-07-29T01:36:00;20.40;95.40
49731;DHT22;35622;52.008;5.426;2023-07-29T01:38:35;20.40;95.50
49731;DHT22;35622;52.008;5.426;2023-07-29T01:41:02;20.40;95.60
49731;DHT22;35622;52.008;5.426;2023-07-29T01:43:29;20.40;95.60
49731;DHT22;35622;52.008;5.426;2023-07-29T01:45:55;20.50;95.70
49731;DHT22;35622;52.008;5.426;2023-07-29T01:48:21;20.50;95.60
49731;DHT22;35622;52.008;5.426;2023-07-29T01:50:47;20.50;95.70
49731;DHT22;35622;52.008;5.426;2023-07-29T01:53:12;20.60;95.60
49731;DHT22;35622;52.008;5.426;2023-07-29T01:55:38;20.50;95.80
49731;DHT22;35622;52.008;5.426;2023-07-29T01:58:04;20.60;95.70
49731;DHT22;35622;52.008;5.426;2023-07-29T02:00:29;20.60;95.60
49731;DHT22;35622;52.008;5.426;2023-07-29T02:02:55;20.50;95.60
49731;DHT22;35622;52.008;5.426;2023-07-29T02:05:21;20.50;95.70
49731;DHT22;35622;52.008;5.426;2023-07-29T02:07:46;20.60;95.60
49731;DHT22;35622;52.008;5.426;2023-07-29T02:10:12;20.60;95.60
49731;DHT22;35622;52.008;5.426;2023-07-29T02:12:37;20.60;95.60
49731;DHT22;35622;52.008;5.426;2023-07-29T02:15:04;20.60;95.60
49731;DHT22;35622;52.008;5.426;2023-07-29T02:17:30;20.60;95.50
49731;DHT22;35622;52.008;5.426;2023-07-29T02:19:56;20.60;95.50
49731;DHT22;35622;52.008;5.426;2023-07-29T02:22:21;20.60;95.40
49731;DHT22;35622;52.008;5.426;2023-07-29T02:24:47;20.60;95.50
49731;DHT22;35622;52.008;5.426;2023-07-29T02:27:12;20.60;95.40
49731;DHT22;35622;52.008;5.426;2023-07-29T02:29:38;20.50;95.50
49731;DHT22;35622;52.008;5.426;2023-07-29T02:32:03;20.50;95.50
49731;DHT22;35622;52.008;5.426;2023-07-29T02:34:29;20.50;95.50
49731;DHT22;35622;52.008;5.426;2023-07-29T02:36:55;20.50;95.50
49731;DHT22;35622;52.008;5.426;2023-07-29T02:39:21;20.40;95.70
49731;DHT22;35622;52.008;5.426;2023-07-29T02:41:47;20.40;95.80
49731;DHT22;35622;52.008;5.426;2023-07-29T02:44:12;20.40;95.80
49731;DHT22;35622;52.008;5.426;2023-07-29T02:46:38;20.40;95.90
49731;DHT22;35622;52.008;5.426;2023-07-29T02:49:04;20.40;95.80
49731;DHT22;35622;52.008;5.426;2023-07-29T02:51:30;20.40;96.00
49731;DHT22;35622;52.008;5.426;2023-07-29T02:53:56;20.30;96.00
49731;DHT22;35622;52.008;5.426;2023-07-29T02:56:21;20.40;96.10
49731;DHT22;35622;52.008;5.426;2023-07-29T02:58:47;20.30;96.20
49731;DHT22;35622;52.008;5.426;2023-07-29T03:01:13;20.40;96.10
49731;DHT22;35622;52.008;5.426;2023-07-29T03:03:39;20.40;96.00
49731;DHT22;35622;52.008;5.426;2023-07-29T03:06:08;20.40;95.90
49731;DHT22;35622;52.008;5.426;2023-07-29T03:08:35;20.30;95.80
49731;DHT22;35622;52.008;5.426;2023-07-29T03:11:09;20.30;96.10
49731;DHT22;35622;52.008;5.426;2023-07-29T03:13:34;20.30;96.20
49731;DHT22;35622;52.008;5.426;2023-07-29T03:16:07;20.40;96.10
49731;DHT22;35622;52.008;5.426;2023-07-29T03:18:33;20.40;96.10
49731;DHT22;35622;52.008;5.426;2023-07-29T03:20:59;20.40;96.00
49731;DHT22;35622;52.008;5.426;2023-07-29T03:23:24;20.40;96.10
49731;DHT22;35622;52.008;5.426;2023-07-29T03:25:50;20.40;96.00
49731;DHT22;35622;52.008;5.426;2023-07-29T03:28:23;20.40;96.00
49731;DHT22;35622;52.008;5.426;2023-07-29T03:30:48;20.40;95.80
49731;DHT22;35622;52.008;5.426;2023-07-29T03:33:14;20.40;95.80
49731;DHT22;35622;52.008;5.426;2023-07-29T03:35:39;20.40;95.80
49731;DHT22;35622;52.008;5.426;2023-07-29T03:38:05;20.40;95.70
49731;DHT22;35622;52.008;5.426;2023-07-29T03:40:30;20.40;95.70
49731;DHT22;35622;52.008;5.426;2023-07-29T03:42:56;20.40;95.70
49731;DHT22;35622;52.008;5.426;2023-07-29T03:45:21;20.40;95.80
49731;DHT22;35622;52.008;5.426;2023-07-29T03:47:47;20.40;95.80
49731;DHT22;35622;52.008;5.426;2023-07-29T03:50:12;20.40;95.90
49731;DHT22;35622;52.008;5.426;2023-07-29T03:52:38;20.40;95.90
49731;DHT22;35622;52.008;5.426;2023-07-29T03:55:04;20.40;95.90
49731;DHT22;35622;52.008;5.426;2023-07-29T03:57:29;20.40;95.90
49731;DHT22;35622;52.008;5.426;2023-07-29T03:59:55;20.40;95.90
49731;DHT22;35622;52.008;5.426;2023-07-29T04:02:21;20.30;95.90
49731;DHT22;35622;52.008;5.426;2023-07-29T04:04:46;20.40;96.00
49731;DHT22;35622;52.008;5.426;2023-07-29T04:07:13;20.30;95.90
49731;DHT22;35622;52.008;5.426;2023-07-29T04:09:39;20.30;96.00
49731;DHT22;35622;52.008;5.426;2023-07-29T04:12:05;20.20;96.10
49731;DHT22;35622;52.008;5.426;2023-07-29T04:14:31;20.20;96.30
49731;DHT22;35622;52.008;5.426;2023-07-29T04:16:56;20.20;96.40
49731;DHT22;35622;52.008;5.426;2023-07-29T04:19:22;20.20;96.80
49731;DHT22;35622;52.008;5.426;2023-07-29T04:21:47;20.20;96.50
49731;DHT22;35622;52.008;5.426;2023-07-29T04:24:13;20.20;96.50
49731;DHT22;35622;52.008;5.426;2023-07-29T04:26:39;20.30;96.50
49731;DHT22;35622;52.008;5.426;2023-07-29T04:29:04;20.10;96.60
49731;DHT22;35622;52.008;5.426;2023-07-29T04:31:30;20.20;96.60
49731;DHT22;35622;52.008;5.426;2023-07-29T04:33:56;20.20;96.60
49731;DHT22;35622;52.008;5.426;2023-07-29T04:36:21;20.30;96.70
49731;DHT22;35622;52.008;5.426;2023-07-29T04:38:47;20.30;96.60
49731;DHT22;35622;52.008;5.426;2023-07-29T04:41:12;20.40;96.50
49731;DHT22;35622;52.008;5.426;2023-07-29T04:43:38;20.30;96.60
49731;DHT22;35622;52.008;5.426;2023-07-29T04:46:06;20.40;96.60
49731;DHT22;35622;52.008;5.426;2023-07-29T04:48:33;20.40;96.60
49731;DHT22;35622;52.008;5.426;2023-07-29T04:50:58;20.40;96.50
49731;DHT22;35622;52.008;5.426;2023-07-29T04:53:24;20.40;96.50
49731;DHT22;35622;52.008;5.426;2023-07-29T04:55:49;20.40;96.50
49731;DHT22;35622;52.008;5.426;2023-07-29T04:58:15;20.40;96.50
49731;DHT22;35622;52.008;5.426;2023-07-29T05:00:40;20.30;96.50
49731;DHT22;35622;52.008;5.426;2023-07-29T05:03:06;20.30;96.70
49731;DHT22;35622;52.008;5.426;2023-07-29T05:05:32;20.30;96.90
49731;DHT22;35622;52.008;5.426;2023-07-29T05:07:57;20.30;97.00
49731;DHT22;35622;52.008;5.426;2023-07-29T05:10:23;20.40;97.10
49731;DHT22;35622;52.008;5.426;2023-07-29T05:12:49;20.50;97.00
49731;DHT22;35622;52.008;5.426;2023-07-29T05:15:15;20.40;97.10
49731;DHT22;35622;52.008;5.426;2023-07-29T05:17:40;20.40;97.00
49731;DHT22;35622;52.008;5.426;2023-07-29T05:20:06;20.40;97.30
49731;DHT22;35622;52.008;5.426;2023-07-29T05:22:32;20.40;97.30
49731;DHT22;35622;52.008;5.426;2023-07-29T05:24:58;20.40;97.30
49731;DHT22;35622;52.008;5.426;2023-07-29T05:27:23;20.20;97.80
49731;DHT22;35622;52.008;5.426;2023-07-29T05:29:49;20.40;97.80
49731;DHT22;35622;52.008;5.426;2023-07-29T05:32:14;20.40;97.70
49731;DHT22;35622;52.008;5.426;2023-07-29T05:34:40;20.50;97.70
49731;DHT22;35622;52.008;5.426;2023-07-29T05:37:05;20.50;97.70
49731;DHT22;35622;52.008;5.426;2023-07-29T05:39:31;20.60;97.90
49731;DHT22;35622;52.008;5.426;2023-07-29T05:41:57;20.30;98.40
49731;DHT22;35622;52.008;5.426;2023-07-29T05:44:23;20.40;98.00
49731;DHT22;35622;52.008;5.426;2023-07-29T05:46:48;20.40;97.70
49731;DHT22;35622;52.008;5.426;2023-07-29T05:49:14;20.40;98.10
49731;DHT22;35622;52.008;5.426;2023-07-29T05:51:40;20.50;98.30
49731;DHT22;35622;52.008;5.426;2023-07-29T05:54:05;20.70;98.30
49731;DHT22;35622;52.008;5.426;2023-07-29T05:56:31;20.90;98.40
49731;DHT22;35622;52.008;5.426;2023-07-29T05:58:57;21.00;97.70
49731;DHT22;35622;52.008;5.426;2023-07-29T06:01:22;21.00;97.30
49731;DHT22;35622;52.008;5.426;2023-07-29T06:03:48;21.00;97.30
49731;DHT22;35622;52.008;5.426;2023-07-29T06:06:14;21.20;97.70
49731;DHT22;35622;52.008;5.426;2023-07-29T06:08:39;21.30;97.50
49731;DHT22;35622;52.008;5.426;2023-07-29T06:11:05;21.70;97.60
49731;DHT22;35622;52.008;5.426;2023-07-29T06:13:51;21.80;96.50
49731;DHT22;35622;52.008;5.426;2023-07-29T06:16:17;22.00;96.40
49731;DHT22;35622;52.008;5.426;2023-07-29T06:18:42;22.20;95.90
49731;DHT22;35622;52.008;5.426;2023-07-29T06:21:08;22.40;95.80
49731;DHT22;35622;52.008;5.426;2023-07-29T06:23:36;22.80;95.60
49731;DHT22;35622;52.008;5.426;2023-07-29T06:26:02;23.10;95.30
49731;DHT22;35622;52.008;5.426;2023-07-29T06:28:30;23.30;93.70
49731;DHT22;35622;52.008;5.426;2023-07-29T06:30:56;23.60;93.30
49731;DHT22;35622;52.008;5.426;2023-07-29T06:33:21;23.60;91.30
49731;DHT22;35622;52.008;5.426;2023-07-29T06:35:47;23.70;92.10
49731;DHT22;35622;52.008;5.426;2023-07-29T06:38:12;23.70;92.10
49731;DHT22;35622;52.008;5.426;2023-07-29T06:40:38;23.50;92.50
49731;DHT22;35622;52.008;5.426;2023-07-29T06:43:03;23.90;92.50
49731;DHT22;35622;52.008;5.426;2023-07-29T06:45:29;24.20;91.00
49731;DHT22;35622;52.008;5.426;2023-07-29T06:47:54;23.90;91.20
49731;DHT22;35622;52.008;5.426;2023-07-29T06:50:20;23.70;91.10
49731;DHT22;35622;52.008;5.426;2023-07-29T06:52:46;23.70;92.50
49731;DHT22;35622;52.008;5.426;2023-07-29T06:55:11;23.70;92.70
49731;DHT22;35622;52.008;5.426;2023-07-29T06:57:37;23.50;93.50
49731;DHT22;35622;52.008;5.426;2023-07-29T07:00:03;23.80;92.40
49731;DHT22;35622;52.008;5.426;2023-07-29T07:02:29;23.50;92.10
49731;DHT22;35622;52.008;5.426;2023-07-29T07:04:55;23.70;92.40
49731;DHT22;35622;52.008;5.426;2023-07-29T07:07:21;23.40;91.80
49731;DHT22;35622;52.008;5.426;2023-07-29T07:09:46;23.20;91.90
49731;DHT22;35622;52.008;5.426;2023-07-29T07:12:12;23.00;92.70
49731;DHT22;35622;52.008;5.426;2023-07-29T07:14:38;22.90;93.30
49731;DHT22;35622;52.008;5.426;2023-07-29T07:17:03;22.80;93.20
49731;DHT22;35622;52.008;5.426;2023-07-29T07:19:29;23.00;93.70
49731;DHT22;35622;52.008;5.426;2023-07-29T07:21:55;22.90;93.80
49731;DHT22;35622;52.008;5.426;2023-07-29T07:24:20;23.00;93.80
49731;DHT22;35622;52.008;5.426;2023-07-29T07:26:46;22.80;93.50
49731;DHT22;35622;52.008;5.426;2023-07-29T07:29:11;22.70;93.90
49731;DHT22;35622;52.008;5.426;2023-07-29T07:31:37;22.70;93.50
49731;DHT22;35622;52.008;5.426;2023-07-29T07:34:02;22.50;93.80
49731;DHT22;35622;52.008;5.426;2023-07-29T07:36:29;22.50;94.70
49731;DHT22;35622;52.008;5.426;2023-07-29T07:38:54;22.60;94.60
49731;DHT22;35622;52.008;5.426;2023-07-29T07:41:20;22.40;94.10
49731;DHT22;35622;52.008;5.426;2023-07-29T07:43:45;22.40;94.90
49731;DHT22;35622;52.008;5.426;2023-07-29T07:46:11;22.50;95.20
49731;DHT22;35622;52.008;5.426;2023-07-29T07:48:37;22.50;94.30
49731;DHT22;35622;52.008;5.426;2023-07-29T07:51:13;22.80;94.60
49731;DHT22;35622;52.008;5.426;2023-07-29T07:53:38;22.80;93.50
49731;DHT22;35622;52.008;5.426;2023-07-29T07:56:05;22.70;93.90
49731;DHT22;35622;52.008;5.426;2023-07-29T07:58:31;22.90;93.90
49731;DHT22;35622;52.008;5.426;2023-07-29T08:01:04;22.90;94.60
49731;DHT22;35622;52.008;5.426;2023-07-29T08:03:30;22.70;94.60
49731;DHT22;35622;52.008;5.426;2023-07-29T08:05:55;22.50;95.00
49731;DHT22;35622;52.008;5.426;2023-07-29T08:08:21;22.60;95.30
49731;DHT22;35622;52.008;5.426;2023-07-29T08:10:47;22.90;96.10
49731;DHT22;35622;52.008;5.426;2023-07-29T08:13:12;23.20;94.10
49731;DHT22;35622;52.008;5.426;2023-07-29T08:15:38;23.70;94.00
49731;DHT22;35622;52.008;5.426;2023-07-29T08:18:03;24.20;92.40
49731;DHT22;35622;52.008;5.426;2023-07-29T08:20:55;24.60;93.20
49731;DHT22;35622;52.008;5.426;2023-07-29T08:23:24;24.70;90.10
49731;DHT22;35622;52.008;5.426;2023-07-29T08:25:56;24.70;91.60
49731;DHT22;35622;52.008;5.426;2023-07-29T08:28:30;25.00;90.80
49731;DHT22;35622;52.008;5.426;2023-07-29T08:30:56;24.90;90.90
49731;DHT22;35622;52.008;5.426;2023-07-29T08:33:21;24.30;90.10
49731;DHT22;35622;52.008;5.426;2023-07-29T08:35:47;23.80;92.00
49731;DHT22;35622;52.008;5.426;2023-07-29T08:38:12;23.90;91.90
49731;DHT22;35622;52.008;5.426;2023-07-29T08:40:42;24.00;91.60
49731;DHT22;35622;52.008;5.426;2023-07-29T08:43:11;24.10;90.60
49731;DHT22;35622;52.008;5.426;2023-07-29T08:45:37;23.90;89.20
49731;DHT22;35622;52.008;5.426;2023-07-29T08:48:07;23.90;90.80
49731;DHT22;35622;52.008;5.426;2023-07-29T08:50:35;23.70;91.00
49731;DHT22;35622;52.008;5.426;2023-07-29T08:53:04;23.80;92.20
49731;DHT22;35622;52.008;5.426;2023-07-29T08:55:31;23.70;92.20
49731;DHT22;35622;52.008;5.426;2023-07-29T08:57:58;23.60;91.90
49731;DHT22;35622;52.008;5.426;2023-07-29T09:00:23;24.00;93.60
49731;DHT22;35622;52.008;5.426;2023-07-29T09:02:50;24.40;90.50
49731;DHT22;35622;52.008;5.426;2023-07-29T09:05:16;24.50;89.20
49731;DHT22;35622;52.008;5.426;2023-07-29T09:07:42;24.40;89.80
49731;DHT22;35622;52.008;5.426;2023-07-29T09:10:09;24.30;90.90
49731;DHT22;35622;52.008;5.426;2023-07-29T09:12:36;24.00;89.60
49731;DHT22;35622;52.008;5.426;2023-07-29T09:15:02;24.00;90.60
49731;DHT22;35622;52.008;5.426;2023-07-29T09:17:31;24.30;91.90
49731;DHT22;35622;52.008;5.426;2023-07-29T09:19:57;24.70;86.90
49731;DHT22;35622;52.008;5.426;2023-07-29T09:22:22;25.10;86.50
49731;DHT22;35622;52.008;5.426;2023-07-29T09:24:48;25.10;89.50
49731;DHT22;35622;52.008;5.426;2023-07-29T09:27:27;25.30;86.80
49731;DHT22;35622;52.008;5.426;2023-07-29T09:29:57;25.60;89.00
49731;DHT22;35622;52.008;5.426;2023-07-29T09:32:24;26.10;87.10
49731;DHT22;35622;52.008;5.426;2023-07-29T09:34:50;25.70;80.80
49731;DHT22;35622;52.008;5.426;2023-07-29T09:37:23;25.90;86.40
49731;DHT22;35622;52.008;5.426;2023-07-29T09:39:49;26.00;80.00
49731;DHT22;35622;52.008;5.426;2023-07-29T09:42:19;26.00;84.10
49731;DHT22;35622;52.008;5.426;2023-07-29T09:44:45;26.00;80.40
49731;DHT22;35622;52.008;5.426;2023-07-29T09:47:22;25.80;82.00
49731;DHT22;35622;52.008;5.426;2023-07-29T09:49:48;25.90;80.40
49731;DHT22;35622;52.008;5.426;2023-07-29T09:52:18;26.10;79.30
49731;DHT22;35622;52.008;5.426;2023-07-29T09:54:44;26.30;77.90
49731;DHT22;35622;52.008;5.426;2023-07-29T09:57:13;25.70;82.20
49731;DHT22;35622;52.008;5.426;2023-07-29T09:59:38;25.50;83.90
49731;DHT22;35622;52.008;5.426;2023-07-29T10:02:04;25.60;83.00
49731;DHT22;35622;52.008;5.426;2023-07-29T10:04:30;25.90;87.50
49731;DHT22;35622;52.008;5.426;2023-07-29T10:06:56;26.00;83.40
49731;DHT22;35622;52.008;5.426;2023-07-29T10:09:23;26.20;79.50
49731;DHT22;35622;52.008;5.426;2023-07-29T10:11:50;26.50;80.70
49731;DHT22;35622;52.008;5.426;2023-07-29T10:14:16;26.40;81.20
49731;DHT22;35622;52.008;5.426;2023-07-29T10:16:43;26.40;83.70
49731;DHT22;35622;52.008;5.426;2023-07-29T10:19:11;26.20;76.40
49731;DHT22;35622;52.008;5.426;2023-07-29T10:21:41;26.20;84.40
49731;DHT22;35622;52.008;5.426;2023-07-29T10:24:15;26.10;79.20
49731;DHT22;35622;52.008;5.426;2023-07-29T10:26:46;26.30;78.90
49731;DHT22;35622;52.008;5.426;2023-07-29T10:29:13;26.20;76.40
49731;DHT22;35622;52.008;5.426;2023-07-29T10:31:41;26.20;78.70
49731;DHT22;35622;52.008;5.426;2023-07-29T10:34:08;25.50;78.00
49731;DHT22;35622;52.008;5.426;2023-07-29T10:36:35;25.60;82.20
49731;DHT22;35622;52.008;5.426;2023-07-29T10:39:01;26.10;81.40
49731;DHT22;35622;52.008;5.426;2023-07-29T10:49:47;26.40;78.60
49731;DHT22;35622;52.008;5.426;2023-07-29T10:52:27;26.30;76.50
49731;DHT22;35622;52.008;5.426;2023-07-29T10:54:53;25.90;75.30
49731;DHT22;35622;52.008;5.426;2023-07-29T10:57:34;25.90;80.50
49731;DHT22;35622;52.008;5.426;2023-07-29T11:00:00;25.50;80.50
49731;DHT22;35622;52.008;5.426;2023-07-29T11:02:32;25.40;82.20
49731;DHT22;35622;52.008;5.426;2023-07-29T11:04:58;25.30;84.60
49731;DHT22;35622;52.008;5.426;2023-07-29T11:07:26;25.60;85.30
49731;DHT22;35622;52.008;5.426;2023-07-29T11:09:53;25.60;82.20
49731;DHT22;35622;52.008;5.426;2023-07-29T11:15:13;25.30;82.20
49731;DHT22;35622;52.008;5.426;2023-07-29T11:17:45;25.20;85.00
49731;DHT22;35622;52.008;5.426;2023-07-29T11:20:12;25.30;86.70
49731;DHT22;35622;52.008;5.426;2023-07-29T11:22:38;25.30;87.70
49731;DHT22;35622;52.008;5.426;2023-07-29T11:25:05;25.30;88.90
49731;DHT22;35622;52.008;5.426;2023-07-29T11:27:31;25.30;90.60
49731;DHT22;35622;52.008;5.426;2023-07-29T11:29:59;25.30;90.00
49731;DHT22;35622;52.008;5.426;2023-07-29T11:32:26;25.10;90.30
49731;DHT22;35622;52.008;5.426;2023-07-29T11:34:51;25.00;90.20
49731;DHT22;35622;52.008;5.426;2023-07-29T11:37:17;24.70;90.30
49731;DHT22;35622;52.008;5.426;2023-07-29T11:39:44;24.80;90.40
49731;DHT22;35622;52.008;5.426;2023-07-29T11:42:11;24.70;90.90
49731;DHT22;35622;52.008;5.426;2023-07-29T11:44:37;24.60;91.00
49731;DHT22;35622;52.008;5.426;2023-07-29T11:47:06;24.70;91.10
49731;DHT22;35622;52.008;5.426;2023-07-29T11:49:33;24.50;91.30
49731;DHT22;35622;52.008;5.426;2023-07-29T11:52:00;24.50;92.20
49731;DHT22;35622;52.008;5.426;2023-07-29T11:54:26;24.30;92.50
49731;DHT22;35622;52.008;5.426;2023-07-29T11:56:52;24.20;92.80
49731;DHT22;35622;52.008;5.426;2023-07-29T11:59:17;24.20;93.00
49731;DHT22;35622;52.008;5.426;2023-07-29T12:01:43;24.30;93.80
49731;DHT22;35622;52.008;5.426;2023-07-29T12:04:08;24.40;93.50
49731;DHT22;35622;52.008;5.426;2023-07-29T12:06:34;24.40;93.90
49731;DHT22;35622;52.008;5.426;2023-07-29T12:09:00;24.40;93.90
49731;DHT22;35622;52.008;5.426;2023-07-29T12:11:26;24.00;92.50
49731;DHT22;35622;52.008;5.426;2023-07-29T12:13:53;23.90;93.40
49731;DHT22;35622;52.008;5.426;2023-07-29T12:16:19;24.00;94.40
49731;DHT22;35622;52.008;5.426;2023-07-29T12:18:45;24.10;94.70
49731;DHT22;35622;52.008;5.426;2023-07-29T12:21:13;24.40;96.00
49731;DHT22;35622;52.008;5.426;2023-07-29T12:23:39;24.60;94.80
49731;DHT22;35622;52.008;5.426;2023-07-29T12:26:04;24.90;93.80
49731;DHT22;35622;52.008;5.426;2023-07-29T12:28:30;25.00;92.60
49731;DHT22;35622;52.008;5.426;2023-07-29T12:30:57;25.50;95.10
49731;DHT22;35622;52.008;5.426;2023-07-29T12:33:32;25.50;90.20
49731;DHT22;35622;52.008;5.426;2023-07-29T12:35:58;25.90;93.10
49731;DHT22;35622;52.008;5.426;2023-07-29T12:38:26;26.30;91.20
49731;DHT22;35622;52.008;5.426;2023-07-29T12:40:51;25.70;91.00
49731;DHT22;35622;52.008;5.426;2023-07-29T12:43:17;25.10;92.50
49731;DHT22;35622;52.008;5.426;2023-07-29T12:45:42;25.30;92.80
49731;DHT22;35622;52.008;5.426;2023-07-29T12:48:09;24.90;92.10
49731;DHT22;35622;52.008;5.426;2023-07-29T12:50:35;25.30;92.00
49731;DHT22;35622;52.008;5.426;2023-07-29T12:53:01;25.30;91.80
49731;DHT22;35622;52.008;5.426;2023-07-29T12:55:26;25.30;91.60
49731;DHT22;35622;52.008;5.426;2023-07-29T12:57:52;24.70;90.90
49731;DHT22;35622;52.008;5.426;2023-07-29T13:00:18;24.50;93.00
49731;DHT22;35622;52.008;5.426;2023-07-29T13:02:43;24.00;93.70
49731;DHT22;35622;52.008;5.426;2023-07-29T13:05:10;23.90;95.20
49731;DHT22;35622;52.008;5.426;2023-07-29T13:07:39;23.90;95.90
49731;DHT22;35622;52.008;5.426;2023-07-29T13:10:04;23.60;96.60
49731;DHT22;35622;52.008;5.426;2023-07-29T13:12:30;23.30;94.90
49731;DHT22;35622;52.008;5.426;2023-07-29T13:14:56;23.50;97.10
49731;DHT22;35622;52.008;5.426;2023-07-29T13:17:22;23.50;96.30
49731;DHT22;35622;52.008;5.426;2023-07-29T13:19:48;23.60;95.70
49731;DHT22;35622;52.008;5.426;2023-07-29T13:22:14;23.60;95.90
49731;DHT22;35622;52.008;5.426;2023-07-29T13:24:39;24.00;96.50
49731;DHT22;35622;52.008;5.426;2023-07-29T13:27:05;24.40;95.10
49731;DHT22;35622;52.008;5.426;2023-07-29T13:29:31;24.80;93.50
49731;DHT22;35622;52.008;5.426;2023-07-29T13:31:56;24.90;94.60
49731;DHT22;35622;52.008;5.426;2023-07-29T13:34:22;24.50;93.80
49731;DHT22;35622;52.008;5.426;2023-07-29T13:36:47;24.00;94.50
49731;DHT22;35622;52.008;5.426;2023-07-29T13:39:13;23.80;94.30
49731;DHT22;35622;52.008;5.426;2023-07-29T13:41:38;23.80;96.40
49731;DHT22;35622;52.008;5.426;2023-07-29T13:44:04;24.30;95.90
49731;DHT22;35622;52.008;5.426;2023-07-29T13:46:30;24.10;95.50
49731;DHT22;35622;52.008;5.426;2023-07-29T13:48:55;24.40;95.40
49731;DHT22;35622;52.008;5.426;2023-07-29T13:51:21;24.30;94.30
49731;DHT22;35622;52.008;5.426;2023-07-29T13:53:46;24.40;94.60
49731;DHT22;35622;52.008;5.426;2023-07-29T13:56:12;24.80;93.60
49731;DHT22;35622;52.008;5.426;2023-07-29T13:58:37;25.30;94.00
49731;DHT22;35622;52.008;5.426;2023-07-29T14:01:03;25.30;94.60
49731;DHT22;35622;52.008;5.426;2023-07-29T14:03:28;25.20;92.80
49731;DHT22;35622;52.008;5.426;2023-07-29T14:05:54;25.10;92.30
49731;DHT22;35622;52.008;5.426;2023-07-29T14:08:19;25.70;94.10
49731;DHT22;35622;52.008;5.426;2023-07-29T14:10:45;25.90;92.40
49731;DHT22;35622;52.008;5.426;2023-07-29T14:13:11;26.20;91.00
49731;DHT22;35622;52.008;5.426;2023-07-29T14:15:36;26.20;91.00
49731;DHT22;35622;52.008;5.426;2023-07-29T14:18:02;25.10;89.70
49731;DHT22;35622;52.008;5.426;2023-07-29T14:20:28;24.80;92.50
49731;DHT22;35622;52.008;5.426;2023-07-29T14:22:53;25.10;93.80
49731;DHT22;35622;52.008;5.426;2023-07-29T14:25:19;25.40;91.10
49731;DHT22;35622;52.008;5.426;2023-07-29T14:27:44;25.90;92.80
49731;DHT22;35622;52.008;5.426;2023-07-29T14:30:10;25.90;90.20
49731;DHT22;35622;52.008;5.426;2023-07-29T14:32:36;25.70;87.20
49731;DHT22;35622;52.008;5.426;2023-07-29T14:35:03;25.30;87.90
49731;DHT22;35622;52.008;5.426;2023-07-29T14:37:32;25.20;91.00
49731;DHT22;35622;52.008;5.426;2023-07-29T14:39:58;25.50;91.70
49731;DHT22;35622;52.008;5.426;2023-07-29T14:42:24;25.70;87.50
49731;DHT22;35622;52.008;5.426;2023-07-29T14:44:49;25.90;86.40
49731;DHT22;35622;52.008;5.426;2023-07-29T14:47:15;25.60;82.60
49731;DHT22;35622;52.008;5.426;2023-07-29T14:49:40;25.20;86.60
49731;DHT22;35622;52.008;5.426;2023-07-29T14:52:06;25.30;88.40
49731;DHT22;35622;52.008;5.426;2023-07-29T14:54:32;25.40;85.70
49731;DHT22;35622;52.008;5.426;2023-07-29T14:56:58;25.50;83.10
49731;DHT22;35622;52.008;5.426;2023-07-29T14:59:23;25.70;83.70
49731;DHT22;35622;52.008;5.426;2023-07-29T15:01:49;25.30;84.20
49731;DHT22;35622;52.008;5.426;2023-07-29T15:04:14;25.40;90.80
49731;DHT22;35622;52.008;5.426;2023-07-29T15:06:40;25.40;89.90
49731;DHT22;35622;52.008;5.426;2023-07-29T15:09:05;25.30;87.60
49731;DHT22;35622;52.008;5.426;2023-07-29T15:11:32;25.30;84.90
49731;DHT22;35622;52.008;5.426;2023-07-29T15:13:59;25.10;85.90
49731;DHT22;35622;52.008;5.426;2023-07-29T15:16:24;25.40;85.90
49731;DHT22;35622;52.008;5.426;2023-07-29T15:18:50;25.60;87.80
49731;DHT22;35622;52.008;5.426;2023-07-29T15:21:16;25.80;85.00
49731;DHT22;35622;52.008;5.426;2023-07-29T15:23:43;25.80;84.40
49731;DHT22;35622;52.008;5.426;2023-07-29T15:26:08;25.40;81.70
49731;DHT22;35622;52.008;5.426;2023-07-29T15:28:34;25.40;83.90
49731;DHT22;35622;52.008;5.426;2023-07-29T15:30:59;25.30;83.90
49731;DHT22;35622;52.008;5.426;2023-07-29T15:33:25;24.90;86.10
49731;DHT22;35622;52.008;5.426;2023-07-29T15:35:50;25.10;85.40
49731;DHT22;35622;52.008;5.426;2023-07-29T15:38:17;25.30;90.00
49731;DHT22;35622;52.008;5.426;2023-07-29T15:40:44;25.10;89.20